Time;durP1;ratioP1;P1;durP2;ratioP2;P2;SDS_P1;SDS_P2;PMS_P1;PMS_P2;Temp;Humidity;BMP_temperature;BMP_pressure;BME280_temperature;BME280_humidity;BME280_pressure;Samples;Min_cycle;Max_cycle;Signal;HPM_P1;HPM_P2
2022/06/02 00:01:17;;;;;;;;;;;8.70;99.90;;;;;;5052091;28;19913;-78
2022/06/02 00:03:45;;;;;;;;;;;8.70;99.90;;;;;;5052808;28;20287;-77
2022/06/02 00:06:29;;;;;;;;;;;8.70;99.90;;;;;;5046710;28;19981;-77
2022/06/02 00:09:06;;;;;;;;;;;8.70;99.90;;;;;;5059373;28;19939;-78
2022/06/02 00:11:47;;;;;;;;;;;8.70;99.90;;;;;;5050798;28;20039;-77
2022/06/02 00:14:12;;;;;;;;;;;8.70;99.90;;;;;;5052926;28;19952;-77
2022/06/02 00:16:41;;;;;;;;;;;8.60;99.90;;;;;;5051509;28;19964;-78
2022/06/02 00:19:09;;;;;;;;;;;8.60;99.90;;;;;;5055636;28;19917;-78
2022/06/02 00:21:35;;;;;;;;;;;8.60;99.90;;;;;;5068803;28;19913;-78
2022/06/02 00:24:12;;;;;;;;;;;8.60;99.90;;;;;;5056687;28;19999;-78
2022/06/02 00:26:45;;;;;;;;;;;8.60;99.90;;;;;;5066810;28;19929;-78
2022/06/02 00:29:20;;;;;;;;;;;8.60;99.90;;;;;;5051912;28;19913;-77
2022/06/02 00:31:45;;;;;;;;;;;8.50;99.90;;;;;;5048934;28;19912;-79
2022/06/02 00:34:19;;;;;;;;;;;8.50;99.90;;;;;;5041088;28;19913;-78
2022/06/02 00:37:05;;;;;;;;;;;8.50;99.90;;;;;;5045067;28;19990;-78
2022/06/02 00:39:32;;;;;;;;;;;8.50;99.90;;;;;;5065052;28;19917;-78
2022/06/02 00:42:16;;;;;;;;;;;8.40;99.90;;;;;;5053806;28;19916;-79
2022/06/02 00:44:44;;;;;;;;;;;8.40;99.90;;;;;;5052021;28;19917;-77
2022/06/02 00:47:29;;;;;;;;;;;8.40;99.90;;;;;;5055615;28;19966;-78
2022/06/02 00:50:12;;;;;;;;;;;8.50;99.90;;;;;;5053879;28;21897;-77
2022/06/02 00:52:44;;;;;;;;;;;8.50;99.90;;;;;;5055103;28;20244;-78
2022/06/02 00:58:09;;;;;;;;;;;8.50;99.90;;;;;;5049825;28;19924;-77
2022/06/02 01:00:37;;;;;;;;;;;8.50;99.90;;;;;;5051220;28;20375;-77
2022/06/02 01:03:12;;;;;;;;;;;8.50;99.90;;;;;;5044948;28;20294;-78
2022/06/02 01:05:48;;;;;;;;;;;8.40;99.90;;;;;;5049607;28;20003;-77
2022/06/02 01:08:25;;;;;;;;;;;8.40;99.90;;;;;;5053327;28;20027;-78
2022/06/02 01:11:08;;;;;;;;;;;8.30;99.90;;;;;;5054507;28;19917;-77
2022/06/02 01:13:43;;;;;;;;;;;8.20;99.90;;;;;;5055254;28;19975;-78
2022/06/02 01:16:15;;;;;;;;;;;8.10;99.90;;;;;;5056016;28;20323;-78
2022/06/02 01:18:56;;;;;;;;;;;8.00;99.90;;;;;;5054358;28;19960;-77
2022/06/02 01:21:30;;;;;;;;;;;8.00;99.90;;;;;;5058559;28;19916;-78
2022/06/02 01:23:57;;;;;;;;;;;7.90;99.90;;;;;;5052937;28;19995;-78
2022/06/02 01:26:37;;;;;;;;;;;7.90;99.90;;;;;;5056853;28;19960;-79
2022/06/02 01:29:18;;;;;;;;;;;7.90;99.90;;;;;;5052574;28;19916;-78
2022/06/02 01:32:02;;;;;;;;;;;7.90;99.90;;;;;;5051352;28;20315;-78
2022/06/02 01:34:40;;;;;;;;;;;7.80;99.90;;;;;;5049714;28;19959;-78
2022/06/02 01:37:13;;;;;;;;;;;7.80;99.90;;;;;;5056350;28;19912;-78
2022/06/02 01:39:39;;;;;;;;;;;7.70;99.90;;;;;;5055065;28;20003;-81
2022/06/02 01:42:04;;;;;;;;;;;7.70;99.90;;;;;;5047314;28;20399;-78
2022/06/02 01:44:43;;;;;;;;;;;7.70;99.90;;;;;;5048121;28;19919;-78
2022/06/02 01:47:12;;;;;;;;;;;7.70;99.90;;;;;;5055738;28;19917;-78
2022/06/02 01:50:01;;;;;;;;;;;7.70;99.90;;;;;;5055177;28;19920;-79
2022/06/02 01:52:46;;;;;;;;;;;7.70;99.90;;;;;;5047309;28;20003;-78
2022/06/02 01:55:11;;;;;;;;;;;7.70;99.90;;;;;;5054063;28;20268;-78
2022/06/02 01:57:55;;;;;;;;;;;7.80;99.90;;;;;;5055740;28;19997;-78
2022/06/02 02:00:23;;;;;;;;;;;7.80;99.90;;;;;;5051688;28;19913;-78
2022/06/02 02:02:58;;;;;;;;;;;7.80;99.90;;;;;;5047539;28;19999;-78
2022/06/02 02:05:36;;;;;;;;;;;7.70;99.90;;;;;;5060675;28;19917;-79
2022/06/02 02:08:01;;;;;;;;;;;7.70;99.90;;;;;;5040293;28;20219;-78
2022/06/02 02:10:27;;;;;;;;;;;7.70;99.90;;;;;;5055394;28;19924;-78
2022/06/02 02:13:05;;;;;;;;;;;7.70;99.90;;;;;;5050551;28;19960;-78
2022/06/02 02:15:45;;;;;;;;;;;7.80;99.90;;;;;;5047639;28;20255;-78
2022/06/02 02:18:20;;;;;;;;;;;7.80;99.90;;;;;;5053894;28;19917;-77
2022/06/02 02:21:04;;;;;;;;;;;7.70;99.90;;;;;;5051444;28;19912;-78
2022/06/02 02:23:56;;;;;;;;;;;7.70;99.90;;;;;;5051369;28;21570;-79
2022/06/02 02:26:26;;;;;;;;;;;7.70;99.90;;;;;;5033920;28;20003;-77
2022/06/02 02:28:52;;;;;;;;;;;7.70;99.90;;;;;;5061791;28;19940;-77
2022/06/02 02:31:36;;;;;;;;;;;7.70;99.90;;;;;;5054515;28;20323;-78
2022/06/02 02:34:01;;;;;;;;;;;7.70;99.90;;;;;;5046660;28;19916;-77
2022/06/02 02:36:39;;;;;;;;;;;7.70;99.90;;;;;;5054450;28;19916;-77
2022/06/02 02:39:10;;;;;;;;;;;7.70;99.90;;;;;;5056506;28;19917;-77
2022/06/02 02:41:41;;;;;;;;;;;7.70;99.90;;;;;;5055327;28;20346;-78
2022/06/02 02:44:19;;;;;;;;;;;7.70;99.90;;;;;;5048552;28;20004;-77
2022/06/02 02:47:03;;;;;;;;;;;7.70;99.90;;;;;;5052277;28;19917;-78
2022/06/02 02:49:34;;;;;;;;;;;7.60;99.90;;;;;;5052657;28;19924;-78
2022/06/02 02:52:02;;;;;;;;;;;7.60;99.90;;;;;;5051886;28;19917;-77
2022/06/02 02:54:32;;;;;;;;;;;7.60;99.90;;;;;;5054787;28;20213;-78
2022/06/02 02:57:17;;;;;;;;;;;7.60;99.90;;;;;;5047173;28;19963;-77
2022/06/02 03:00:09;;;;;;;;;;;7.60;99.90;;;;;;5055345;28;19912;-79
2022/06/02 03:02:51;;;;;;;;;;;7.60;99.90;;;;;;5048508;28;20227;-78
2022/06/02 03:05:25;;;;;;;;;;;7.70;99.90;;;;;;5050264;28;19987;-78
2022/06/02 03:07:51;;;;;;;;;;;7.70;99.90;;;;;;5048112;28;19948;-78
2022/06/02 03:10:21;;;;;;;;;;;7.70;99.90;;;;;;5051213;28;19963;-78
2022/06/02 03:12:46;;;;;;;;;;;7.70;99.90;;;;;;5049926;28;19920;-79
2022/06/02 03:15:15;;;;;;;;;;;7.70;99.90;;;;;;5053394;28;19917;-78
2022/06/02 03:17:43;;;;;;;;;;;7.60;99.90;;;;;;5058789;28;19948;-78
2022/06/02 03:20:09;;;;;;;;;;;7.50;99.90;;;;;;5052676;28;20203;-78
2022/06/02 03:22:34;;;;;;;;;;;7.40;99.90;;;;;;5050137;28;19913;-77
2022/06/02 03:25:09;;;;;;;;;;;7.30;99.90;;;;;;5050328;28;19921;-77
2022/06/02 03:27:54;;;;;;;;;;;7.20;99.90;;;;;;5048538;28;19921;-79
2022/06/02 03:30:19;;;;;;;;;;;7.10;99.90;;;;;;5051442;28;20315;-78
2022/06/02 03:32:51;;;;;;;;;;;7.10;99.90;;;;;;5053655;28;19913;-79
2022/06/02 03:35:33;;;;;;;;;;;7.00;99.90;;;;;;5051775;28;20551;-78
2022/06/02 03:37:59;;;;;;;;;;;6.90;99.90;;;;;;5050540;28;20196;-78
2022/06/02 03:40:30;;;;;;;;;;;6.90;99.90;;;;;;5059595;28;19919;-78
2022/06/02 03:43:18;;;;;;;;;;;7.00;99.90;;;;;;5051029;28;19921;-78
2022/06/02 03:46:19;;;;;;;;;;;7.00;99.90;;;;;;5053187;28;19968;-77
2022/06/02 03:48:47;;;;;;;;;;;6.90;99.90;;;;;;4974694;28;19922;-77
2022/06/02 03:51:32;;;;;;;;;;;6.90;99.90;;;;;;4972925;28;19941;-77
2022/06/02 03:53:57;;;;;;;;;;;6.90;99.90;;;;;;4985673;28;19921;-78
2022/06/02 03:56:49;;;;;;;;;;;6.70;99.90;;;;;;4993355;28;19972;-78
2022/06/02 03:59:33;;;;;;;;;;;6.60;99.90;;;;;;4960723;28;19913;-79
2022/06/02 04:02:01;;;;;;;;;;;6.70;99.90;;;;;;4989903;28;19928;-78
2022/06/02 04:04:32;;;;;;;;;;;6.70;99.90;;;;;;4989556;28;20344;-78
2022/06/02 04:07:24;;;;;;;;;;;6.80;99.90;;;;;;4983842;28;19920;-78
2022/06/02 04:09:52;;;;;;;;;;;6.90;99.90;;;;;;4958498;28;19932;-78
2022/06/02 04:15:15;;;;;;;;;;;7.00;99.90;;;;;;4987533;28;19953;-77
2022/06/02 04:17:41;;;;;;;;;;;7.00;99.90;;;;;;4971383;28;19914;-79
2022/06/02 04:20:40;;;;;;;;;;;7.10;99.90;;;;;;4987327;28;19913;-78
2022/06/02 04:23:24;;;;;;;;;;;7.10;99.90;;;;;;5029309;28;19920;-78
2022/06/02 04:26:02;;;;;;;;;;;7.20;99.90;;;;;;5050519;28;19912;-79
2022/06/02 04:28:49;;;;;;;;;;;7.20;99.90;;;;;;5065044;28;19913;-79
2022/06/02 04:31:38;;;;;;;;;;;7.20;99.90;;;;;;5051567;28;19998;-78
2022/06/02 04:34:22;;;;;;;;;;;7.30;99.90;;;;;;5044148;28;19924;-78
2022/06/02 04:36:54;;;;;;;;;;;7.50;99.90;;;;;;5049077;28;19952;-77
2022/06/02 04:39:45;;;;;;;;;;;7.70;99.90;;;;;;5064323;28;19913;-78
2022/06/02 04:42:30;;;;;;;;;;;7.70;99.90;;;;;;5050101;28;19916;-77
2022/06/02 04:45:01;;;;;;;;;;;7.90;99.90;;;;;;5046908;28;19963;-78
2022/06/02 04:47:37;;;;;;;;;;;8.10;99.90;;;;;;5052710;28;19913;-78
2022/06/02 04:50:03;;;;;;;;;;;8.20;99.90;;;;;;5050406;28;19928;-78
2022/06/02 04:52:32;;;;;;;;;;;8.30;99.90;;;;;;5049703;28;19917;-78
2022/06/02 04:55:17;;;;;;;;;;;8.30;99.90;;;;;;5049411;28;19925;-78
2022/06/02 04:57:42;;;;;;;;;;;8.30;99.90;;;;;;5036373;28;19921;-78
2022/06/02 05:00:23;;;;;;;;;;;8.40;99.90;;;;;;5048371;28;20205;-78
2022/06/02 05:03:07;;;;;;;;;;;8.40;99.90;;;;;;5041077;28;19994;-79
2022/06/02 05:05:38;;;;;;;;;;;8.40;99.90;;;;;;5048617;28;19917;-79
2022/06/02 05:08:06;;;;;;;;;;;8.60;99.90;;;;;;5048782;28;19921;-78
2022/06/02 05:10:43;;;;;;;;;;;8.60;99.90;;;;;;5046224;28;20290;-79
2022/06/02 05:13:14;;;;;;;;;;;8.80;99.90;;;;;;5044515;28;19932;-80
2022/06/02 05:15:48;;;;;;;;;;;8.90;99.90;;;;;;5046564;28;19995;-80
2022/06/02 05:18:26;;;;;;;;;;;9.00;99.90;;;;;;5048183;28;19939;-79
2022/06/02 05:20:55;;;;;;;;;;;9.10;99.90;;;;;;5063449;28;20003;-79
2022/06/02 05:23:20;;;;;;;;;;;9.20;99.90;;;;;;5047063;28;19913;-79
2022/06/02 05:25:46;;;;;;;;;;;9.40;99.90;;;;;;5051238;28;21569;-78
2022/06/02 05:28:17;;;;;;;;;;;9.40;99.90;;;;;;5018072;28;20011;-79
2022/06/02 05:30:58;;;;;;;;;;;9.60;99.90;;;;;;5048012;28;20000;-79
2022/06/02 05:33:40;;;;;;;;;;;9.70;99.90;;;;;;5048033;28;19924;-79
2022/06/02 05:36:12;;;;;;;;;;;9.80;99.90;;;;;;5048182;28;20267;-80
2022/06/02 05:38:39;;;;;;;;;;;10.10;99.90;;;;;;5045227;28;19917;-79
2022/06/02 05:41:21;;;;;;;;;;;10.20;99.90;;;;;;5046923;28;19920;-79
2022/06/02 05:44:05;;;;;;;;;;;10.30;99.90;;;;;;5048970;28;19913;-79
2022/06/02 05:46:49;;;;;;;;;;;10.40;99.90;;;;;;5048063;28;19921;-79
2022/06/02 05:49:30;;;;;;;;;;;10.40;99.90;;;;;;5049342;28;19913;-79
2022/06/02 05:52:14;;;;;;;;;;;10.60;99.90;;;;;;5047124;28;19917;-79
2022/06/02 05:54:46;;;;;;;;;;;10.60;99.90;;;;;;5045623;28;19931;-79
2022/06/02 05:57:28;;;;;;;;;;;10.70;99.90;;;;;;5044707;28;19920;-78
2022/06/02 06:00:12;;;;;;;;;;;10.80;99.90;;;;;;5040731;28;20433;-79
2022/06/02 06:02:49;;;;;;;;;;;10.90;99.90;;;;;;5046104;28;20279;-78
2022/06/02 06:05:18;;;;;;;;;;;11.10;99.90;;;;;;5041779;28;19952;-78
2022/06/02 06:07:56;;;;;;;;;;;11.30;99.90;;;;;;5026973;28;19953;-77
2022/06/02 06:10:24;;;;;;;;;;;11.50;99.90;;;;;;5049483;28;19920;-78
2022/06/02 06:12:57;;;;;;;;;;;11.60;99.90;;;;;;5047499;28;19944;-78
2022/06/02 06:15:42;;;;;;;;;;;11.60;99.90;;;;;;5041848;28;19916;-77
2022/06/02 06:18:13;;;;;;;;;;;11.60;99.90;;;;;;5044386;28;19913;-77
2022/06/02 06:20:42;;;;;;;;;;;11.80;99.90;;;;;;5045880;28;19917;-77
2022/06/02 06:23:21;;;;;;;;;;;11.90;99.90;;;;;;5047168;28;19925;-79
2022/06/02 06:25:58;;;;;;;;;;;12.00;99.90;;;;;;5046680;28;19913;-77
2022/06/02 06:28:27;;;;;;;;;;;12.00;99.90;;;;;;5040584;28;19951;-76
2022/06/02 06:30:53;;;;;;;;;;;12.00;99.90;;;;;;5041955;28;19925;-77
2022/06/02 06:33:37;;;;;;;;;;;12.10;99.90;;;;;;5038521;28;20402;-77
2022/06/02 06:36:09;;;;;;;;;;;12.10;99.90;;;;;;5045905;28;19921;-77
2022/06/02 06:38:55;;;;;;;;;;;12.30;99.90;;;;;;5045561;28;19979;-76
2022/06/02 06:41:36;;;;;;;;;;;12.30;99.90;;;;;;5044719;28;19960;-77
2022/06/02 06:44:05;;;;;;;;;;;12.40;99.90;;;;;;5045852;28;19975;-77
2022/06/02 06:46:49;;;;;;;;;;;12.50;99.90;;;;;;5046791;28;19917;-75
2022/06/02 06:49:27;;;;;;;;;;;12.50;99.90;;;;;;5047274;28;20363;-77
2022/06/02 06:52:07;;;;;;;;;;;12.50;99.90;;;;;;5046103;28;19982;-77
2022/06/02 06:54:39;;;;;;;;;;;12.50;99.90;;;;;;5046812;28;19968;-74
2022/06/02 06:57:11;;;;;;;;;;;12.60;99.90;;;;;;5045461;28;20323;-76
2022/06/02 06:59:46;;;;;;;;;;;12.60;99.90;;;;;;5045381;28;19935;-74
2022/06/02 07:02:17;;;;;;;;;;;12.80;99.90;;;;;;5043067;28;19962;-75
2022/06/02 07:05:05;;;;;;;;;;;12.80;99.90;;;;;;5029927;28;20010;-75
2022/06/02 07:07:35;;;;;;;;;;;12.70;99.90;;;;;;5046376;28;20000;-75
2022/06/02 07:10:19;;;;;;;;;;;12.90;99.90;;;;;;5046519;28;20375;-74
2022/06/02 07:12:52;;;;;;;;;;;12.90;99.90;;;;;;5046922;28;19913;-76
2022/06/02 07:15:17;;;;;;;;;;;12.90;99.90;;;;;;5042573;28;19991;-77
2022/06/02 07:17:50;;;;;;;;;;;13.00;99.90;;;;;;5045508;28;20114;-74
2022/06/02 07:20:20;;;;;;;;;;;13.20;99.90;;;;;;5047120;28;19924;-75
2022/06/02 07:22:51;;;;;;;;;;;13.40;99.90;;;;;;5046710;28;19920;-75
2022/06/02 07:25:20;;;;;;;;;;;13.40;99.90;;;;;;5043951;28;19913;-74
2022/06/02 07:28:12;;;;;;;;;;;13.40;99.90;;;;;;5049034;28;20007;-74
2022/06/02 07:30:44;;;;;;;;;;;13.60;99.90;;;;;;5043114;28;19921;-74
2022/06/02 07:33:09;;;;;;;;;;;13.70;99.90;;;;;;5035358;28;19920;-74
2022/06/02 07:35:35;;;;;;;;;;;13.70;99.90;;;;;;5035058;28;20212;-73
2022/06/02 07:38:16;;;;;;;;;;;13.50;99.90;;;;;;5054571;28;19921;-74
2022/06/02 07:41:00;;;;;;;;;;;13.40;99.90;;;;;;5052689;28;20019;-74
2022/06/02 07:43:38;;;;;;;;;;;13.50;99.90;;;;;;5052462;28;19928;-74
2022/06/02 07:46:16;;;;;;;;;;;13.80;99.90;;;;;;5058495;28;19923;-74
2022/06/02 07:49:00;;;;;;;;;;;13.90;99.90;;;;;;5053069;28;19920;-74
2022/06/02 07:51:26;;;;;;;;;;;14.30;99.90;;;;;;5053062;28;19956;-74
2022/06/02 07:53:51;;;;;;;;;;;14.30;99.90;;;;;;5049987;28;20102;-74
2022/06/02 07:56:17;;;;;;;;;;;14.60;99.90;;;;;;5052120;28;20042;-74
2022/06/02 07:58:52;;;;;;;;;;;14.70;99.90;;;;;;5056854;28;20338;-75
2022/06/02 08:01:17;;;;;;;;;;;15.00;99.90;;;;;;5051075;28;19912;-74
2022/06/02 08:03:46;;;;;;;;;;;15.50;99.90;;;;;;5050350;28;19917;-76
2022/06/02 08:06:25;;;;;;;;;;;15.50;99.90;;;;;;5069919;28;20215;-74
2022/06/02 08:08:57;;;;;;;;;;;15.60;99.90;;;;;;5052827;28;19920;-74
2022/06/02 08:11:49;;;;;;;;;;;15.80;99.90;;;;;;5052889;28;19966;-74
2022/06/02 08:14:14;;;;;;;;;;;16.20;99.90;;;;;;5049630;28;20193;-75
2022/06/02 08:16:58;;;;;;;;;;;16.80;99.90;;;;;;5056998;28;19965;-74
2022/06/02 08:19:34;;;;;;;;;;;17.00;99.90;;;;;;5055417;28;19924;-74
2022/06/02 08:22:01;;;;;;;;;;;16.90;99.90;;;;;;5057407;28;19913;-74
2022/06/02 08:24:45;;;;;;;;;;;16.90;99.90;;;;;;5058396;28;19912;-74
2022/06/02 08:27:20;;;;;;;;;;;16.90;99.90;;;;;;5055773;28;19974;-74
2022/06/02 08:29:56;;;;;;;;;;;16.90;99.90;;;;;;5055002;28;20308;-74
2022/06/02 08:32:27;;;;;;;;;;;18.10;99.90;;;;;;5051817;28;19994;-74
2022/06/02 08:34:53;;;;;;;;;;;18.90;99.90;;;;;;5058728;28;19984;-75
2022/06/02 08:37:27;;;;;;;;;;;19.10;99.90;;;;;;5059650;28;19951;-74
2022/06/02 08:39:56;;;;;;;;;;;19.10;99.90;;;;;;5051498;28;19978;-74
2022/06/02 08:42:39;;;;;;;;;;;18.80;99.90;;;;;;5059029;28;19966;-74
2022/06/02 08:45:05;;;;;;;;;;;18.30;99.90;;;;;;5052455;28;19919;-74
2022/06/02 08:47:43;;;;;;;;;;;17.70;99.90;;;;;;5038709;28;19913;-75
2022/06/02 08:50:23;;;;;;;;;;;17.60;99.90;;;;;;5046106;28;20458;-74
2022/06/02 08:53:10;;;;;;;;;;;17.60;99.90;;;;;;5048739;28;19921;-74
2022/06/02 08:55:43;;;;;;;;;;;17.70;99.90;;;;;;5049358;28;19921;-74
2022/06/02 08:58:21;;;;;;;;;;;17.20;99.90;;;;;;5049961;28;20315;-75
2022/06/02 09:01:01;;;;;;;;;;;17.30;99.90;;;;;;5065020;28;19951;-74
2022/06/02 09:03:44;;;;;;;;;;;16.90;99.90;;;;;;5046914;28;19920;-74
2022/06/02 09:06:23;;;;;;;;;;;16.90;99.90;;;;;;5048073;28;19959;-74
2022/06/02 09:09:09;;;;;;;;;;;16.80;99.90;;;;;;5046838;28;19916;-73
2022/06/02 09:11:40;;;;;;;;;;;17.00;99.90;;;;;;5018120;28;20207;-73
2022/06/02 09:14:09;;;;;;;;;;;17.60;99.90;;;;;;5046296;28;20209;-73
2022/06/02 09:16:44;;;;;;;;;;;18.20;99.90;;;;;;5048552;28;19968;-74
2022/06/02 09:19:25;;;;;;;;;;;18.40;99.90;;;;;;5048391;28;19912;-74
2022/06/02 09:21:59;;;;;;;;;;;19.00;99.90;;;;;;5050309;28;20016;-73
2022/06/02 09:24:25;;;;;;;;;;;19.30;99.90;;;;;;5047798;28;19968;-74
2022/06/02 09:26:51;;;;;;;;;;;19.40;99.90;;;;;;5046854;28;20423;-73
2022/06/02 09:29:21;;;;;;;;;;;19.60;99.90;;;;;;5045445;28;19963;-74
2022/06/02 09:31:49;;;;;;;;;;;19.60;99.90;;;;;;5046515;28;19917;-74
2022/06/02 09:34:18;;;;;;;;;;;20.00;99.90;;;;;;5048599;28;19921;-74
2022/06/02 09:36:46;;;;;;;;;;;20.20;99.80;;;;;;5047655;28;20274;-75
2022/06/02 09:39:30;;;;;;;;;;;20.10;99.90;;;;;;5045457;28;19913;-76
2022/06/02 09:42:05;;;;;;;;;;;20.50;99.70;;;;;;5046396;28;20231;-75
2022/06/02 09:44:41;;;;;;;;;;;21.00;99.10;;;;;;5048972;28;19948;-76
2022/06/02 09:47:08;;;;;;;;;;;21.70;98.80;;;;;;5038708;28;20252;-76
2022/06/02 09:49:52;;;;;;;;;;;22.20;98.40;;;;;;5047347;28;19917;-75
2022/06/02 09:52:21;;;;;;;;;;;22.10;98.70;;;;;;5046255;28;19922;-75
2022/06/02 09:55:12;;;;;;;;;;;21.60;98.50;;;;;;5048623;28;19928;-78
2022/06/02 09:57:57;;;;;;;;;;;21.10;98.30;;;;;;5038246;28;19916;-75
2022/06/02 10:00:46;;;;;;;;;;;21.50;98.30;;;;;;5047326;28;19946;-75
2022/06/02 10:03:17;;;;;;;;;;;21.90;98.50;;;;;;5018991;28;19919;-74
2022/06/02 10:06:01;;;;;;;;;;;22.00;97.80;;;;;;5044768;28;19916;-75
2022/06/02 10:08:44;;;;;;;;;;;20.80;97.90;;;;;;5048818;28;19927;-75
2022/06/02 10:11:23;;;;;;;;;;;19.90;98.90;;;;;;5046141;28;19963;-75
2022/06/02 10:13:54;;;;;;;;;;;19.50;99.80;;;;;;5048581;28;19923;-74
2022/06/02 10:16:49;;;;;;;;;;;19.30;99.90;;;;;;5046295;28;19920;-75
2022/06/02 10:19:15;;;;;;;;;;;19.40;99.90;;;;;;5006194;28;20329;-76
2022/06/02 10:21:47;;;;;;;;;;;19.30;99.40;;;;;;5046283;28;20050;-75
2022/06/02 10:24:16;;;;;;;;;;;19.00;99.80;;;;;;5043364;28;20007;-75
2022/06/02 10:26:55;;;;;;;;;;;18.90;99.90;;;;;;5050775;28;19913;-77
2022/06/02 10:29:21;;;;;;;;;;;19.20;99.90;;;;;;5042208;28;20031;-75
2022/06/02 10:31:50;;;;;;;;;;;19.60;99.90;;;;;;5044883;28;19916;-75
2022/06/02 10:34:21;;;;;;;;;;;19.40;99.40;;;;;;5047063;28;19984;-75
2022/06/02 10:36:56;;;;;;;;;;;19.50;99.90;;;;;;5046052;28;19913;-75
2022/06/02 10:39:40;;;;;;;;;;;19.40;99.90;;;;;;5047679;28;20655;-75
2022/06/02 10:42:05;;;;;;;;;;;19.60;99.50;;;;;;5047343;28;20008;-75
2022/06/02 10:44:49;;;;;;;;;;;19.80;99.00;;;;;;5044511;28;20254;-74
2022/06/02 10:47:34;;;;;;;;;;;19.70;99.00;;;;;;5063228;28;20000;-75
2022/06/02 10:49:59;;;;;;;;;;;19.40;99.60;;;;;;5043619;28;20324;-75
2022/06/02 10:52:29;;;;;;;;;;;19.50;99.30;;;;;;5045842;28;19928;-74
2022/06/02 10:55:18;;;;;;;;;;;19.50;99.90;;;;;;5045714;28;19939;-75
2022/06/02 10:57:56;;;;;;;;;;;19.30;99.90;;;;;;5046297;28;19974;-76
2022/06/02 11:00:29;;;;;;;;;;;19.00;99.90;;;;;;5064294;28;19924;-75
2022/06/02 11:02:57;;;;;;;;;;;19.10;99.90;;;;;;5047324;28;19920;-75
2022/06/02 11:05:23;;;;;;;;;;;20.00;99.90;;;;;;5049643;28;19968;-75
2022/06/02 11:07:48;;;;;;;;;;;20.70;99.90;;;;;;5050690;28;19992;-75
2022/06/02 11:10:20;;;;;;;;;;;21.00;98.10;;;;;;5050148;28;19964;-77
2022/06/02 11:13:04;;;;;;;;;;;21.70;97.60;;;;;;5051972;28;19913;-76
2022/06/02 11:15:39;;;;;;;;;;;21.80;97.10;;;;;;5048001;28;19998;-75
2022/06/02 11:18:20;;;;;;;;;;;22.50;97.50;;;;;;5036314;28;19924;-75
2022/06/02 11:20:49;;;;;;;;;;;23.20;95.50;;;;;;5045818;28;19917;-76
2022/06/02 11:23:20;;;;;;;;;;;23.30;92.90;;;;;;5045944;28;19952;-75
2022/06/02 11:25:52;;;;;;;;;;;22.80;94.00;;;;;;5047412;28;19916;-74
2022/06/02 11:28:30;;;;;;;;;;;22.90;94.80;;;;;;5047766;28;19948;-74
2022/06/02 11:30:59;;;;;;;;;;;22.20;95.00;;;;;;5048053;28;20055;-76
2022/06/02 11:33:30;;;;;;;;;;;21.50;97.40;;;;;;5045051;28;20331;-76
2022/06/02 11:36:15;;;;;;;;;;;20.50;97.30;;;;;;5044493;28;19932;-75
2022/06/02 11:38:50;;;;;;;;;;;20.70;96.50;;;;;;5043691;28;19917;-76
2022/06/02 11:41:24;;;;;;;;;;;21.20;95.30;;;;;;5042893;28;19921;-76
2022/06/02 11:44:07;;;;;;;;;;;21.80;96.30;;;;;;5047969;28;19964;-75
2022/06/02 11:46:52;;;;;;;;;;;22.40;96.00;;;;;;5057422;28;19916;-75
2022/06/02 11:49:23;;;;;;;;;;;22.10;94.90;;;;;;5046994;28;19917;-76
2022/06/02 11:52:08;;;;;;;;;;;22.20;95.40;;;;;;5047141;28;19921;-76
2022/06/02 11:54:36;;;;;;;;;;;22.10;95.70;;;;;;5045751;28;19925;-76
2022/06/02 11:57:20;;;;;;;;;;;21.80;95.00;;;;;;5046858;28;19942;-76
2022/06/02 11:59:46;;;;;;;;;;;21.60;96.00;;;;;;5043040;28;19975;-75
2022/06/02 12:02:20;;;;;;;;;;;22.20;95.40;;;;;;5044702;28;20367;-75
2022/06/02 12:04:52;;;;;;;;;;;22.40;94.30;;;;;;5045875;28;19917;-75
2022/06/02 12:07:17;;;;;;;;;;;22.00;94.50;;;;;;5044708;28;20059;-75
2022/06/02 12:09:55;;;;;;;;;;;22.00;95.30;;;;;;5054316;28;20011;-75
2022/06/02 12:12:32;;;;;;;;;;;21.80;95.00;;;;;;5046708;28;20070;-75
2022/06/02 12:15:11;;;;;;;;;;;22.00;94.80;;;;;;5045778;28;19921;-76
2022/06/02 12:17:55;;;;;;;;;;;21.90;94.90;;;;;;5047377;28;19967;-75
2022/06/02 12:20:33;;;;;;;;;;;22.00;95.20;;;;;;5038069;28;19921;-75
2022/06/02 12:23:05;;;;;;;;;;;21.40;97.20;;;;;;5047043;28;19955;-74
2022/06/02 12:25:49;;;;;;;;;;;20.80;95.60;;;;;;5047271;28;19928;-74
2022/06/02 12:28:21;;;;;;;;;;;20.50;97.10;;;;;;5046836;28;19913;-75
2022/06/02 12:30:46;;;;;;;;;;;20.80;98.00;;;;;;5050093;28;20019;-74
2022/06/02 12:33:27;;;;;;;;;;;20.60;95.80;;;;;;5050607;28;20012;-74
2022/06/02 12:35:55;;;;;;;;;;;20.40;95.80;;;;;;5049904;28;19916;-74
2022/06/02 12:38:29;;;;;;;;;;;20.30;98.40;;;;;;5049229;28;19912;-75
2022/06/02 12:41:07;;;;;;;;;;;20.30;96.70;;;;;;5049577;28;20196;-75
2022/06/02 12:43:52;;;;;;;;;;;20.30;97.00;;;;;;5048822;28;19943;-74
2022/06/02 12:46:21;;;;;;;;;;;20.40;97.10;;;;;;5049317;28;19914;-74
2022/06/02 12:48:59;;;;;;;;;;;20.60;95.90;;;;;;5047130;28;20383;-74
2022/06/02 12:51:43;;;;;;;;;;;20.60;96.00;;;;;;5049994;28;20004;-76
2022/06/02 12:54:14;;;;;;;;;;;20.10;96.70;;;;;;5047912;28;19917;-75
2022/06/02 12:57:04;;;;;;;;;;;19.90;96.70;;;;;;5048494;28;20278;-75
2022/06/02 12:59:36;;;;;;;;;;;20.00;94.80;;;;;;5049396;28;19916;-76
2022/06/02 13:02:11;;;;;;;;;;;19.80;97.10;;;;;;5047112;28;19917;-75
2022/06/02 13:04:55;;;;;;;;;;;19.80;95.60;;;;;;5048982;28;19921;-77
2022/06/02 13:07:21;;;;;;;;;;;19.70;98.50;;;;;;5048829;28;19917;-75
2022/06/02 13:09:46;;;;;;;;;;;19.80;96.50;;;;;;5049895;28;19920;-75
2022/06/02 13:12:18;;;;;;;;;;;20.20;95.70;;;;;;5048100;28;20091;-77
2022/06/02 13:15:08;;;;;;;;;;;20.20;97.10;;;;;;5046903;28;20017;-75
2022/06/02 13:17:33;;;;;;;;;;;20.20;97.60;;;;;;5049437;28;19924;-75
2022/06/02 13:20:13;;;;;;;;;;;20.30;97.90;;;;;;4939574;28;19978;-76
2022/06/02 13:22:57;;;;;;;;;;;20.50;98.10;;;;;;4926796;28;20028;-75
2022/06/02 13:25:30;;;;;;;;;;;20.50;95.10;;;;;;4942358;28;20045;-75
2022/06/02 13:28:15;;;;;;;;;;;20.20;95.60;;;;;;4934550;28;19922;-75
2022/06/02 13:30:56;;;;;;;;;;;20.10;97.20;;;;;;4929959;28;19952;-77
2022/06/02 13:33:22;;;;;;;;;;;20.40;97.80;;;;;;4932343;28;19917;-76
2022/06/02 13:36:03;;;;;;;;;;;20.20;96.20;;;;;;4932463;28;19917;-74
2022/06/02 13:38:34;;;;;;;;;;;20.30;96.70;;;;;;4930956;28;19917;-76
2022/06/02 13:41:28;;;;;;;;;;;20.50;96.70;;;;;;4936070;28;19921;-75
2022/06/02 13:44:17;;;;;;;;;;;20.40;95.70;;;;;;4928694;28;20013;-74
2022/06/02 13:46:56;;;;;;;;;;;20.60;96.30;;;;;;4933316;28;19927;-76
2022/06/02 13:49:30;;;;;;;;;;;20.40;95.60;;;;;;4927514;28;19916;-75
2022/06/02 13:52:02;;;;;;;;;;;20.20;96.80;;;;;;4930400;28;19944;-75
2022/06/02 13:57:30;;;;;;;;;;;20.10;96.80;;;;;;4931322;28;19924;-74
2022/06/02 14:00:14;;;;;;;;;;;20.10;97.00;;;;;;4927681;28;20019;-75
2022/06/02 14:02:40;;;;;;;;;;;20.40;97.90;;;;;;4939744;28;20656;-76
2022/06/02 14:05:11;;;;;;;;;;;20.50;97.60;;;;;;4932208;28;21193;-76
2022/06/02 14:07:45;;;;;;;;;;;20.30;97.70;;;;;;4926434;28;19924;-76
2022/06/02 14:10:28;;;;;;;;;;;20.20;97.00;;;;;;4926366;28;20243;-77
2022/06/02 14:12:56;;;;;;;;;;;20.10;97.80;;;;;;4924403;28;19917;-76
2022/06/02 14:15:28;;;;;;;;;;;19.80;98.00;;;;;;4929666;28;21764;-76
2022/06/02 14:17:54;;;;;;;;;;;19.40;98.60;;;;;;4924661;28;20318;-75
2022/06/02 14:20:23;;;;;;;;;;;19.70;97.40;;;;;;4928565;28;19917;-75
2022/06/02 14:22:54;;;;;;;;;;;19.80;97.40;;;;;;4929368;28;19917;-75
2022/06/02 14:25:25;;;;;;;;;;;19.80;96.70;;;;;;4929023;28;19927;-75
2022/06/02 14:28:13;;;;;;;;;;;20.00;98.50;;;;;;4925685;28;19921;-76
2022/06/02 14:30:47;;;;;;;;;;;20.20;97.50;;;;;;4925821;28;20596;-75
2022/06/02 14:33:22;;;;;;;;;;;20.30;95.30;;;;;;4932652;28;20318;-76
2022/06/02 14:36:00;;;;;;;;;;;20.20;96.30;;;;;;4930229;28;19917;-76
2022/06/02 14:38:32;;;;;;;;;;;20.00;97.40;;;;;;4930638;28;20332;-76
2022/06/02 14:41:16;;;;;;;;;;;19.90;99.60;;;;;;4951661;28;19923;-76
2022/06/02 14:44:01;;;;;;;;;;;19.90;96.90;;;;;;4950840;28;19924;-78
2022/06/02 14:46:32;;;;;;;;;;;19.90;98.50;;;;;;4946111;28;19928;-75
2022/06/02 14:48:58;;;;;;;;;;;19.90;98.20;;;;;;4948097;28;20693;-77
2022/06/02 14:51:32;;;;;;;;;;;19.50;97.30;;;;;;4947909;28;20468;-76
2022/06/02 14:54:00;;;;;;;;;;;19.70;99.80;;;;;;4948570;28;20828;-76
2022/06/02 14:56:35;;;;;;;;;;;19.60;97.60;;;;;;4952191;28;19925;-77
2022/06/02 14:59:19;;;;;;;;;;;19.60;98.40;;;;;;4949901;28;19928;-75
2022/06/02 15:01:50;;;;;;;;;;;19.80;99.20;;;;;;4949566;28;19917;-75
2022/06/02 15:04:15;;;;;;;;;;;19.80;98.90;;;;;;4946527;28;19917;-75
2022/06/02 15:06:56;;;;;;;;;;;20.00;99.90;;;;;;4931156;28;20407;-75
2022/06/02 15:09:34;;;;;;;;;;;20.00;99.00;;;;;;4935088;28;21184;-76
2022/06/02 15:12:08;;;;;;;;;;;19.90;99.10;;;;;;4929830;28;19925;-74
2022/06/02 15:14:41;;;;;;;;;;;19.90;98.80;;;;;;4926814;28;20563;-76
2022/06/02 15:17:10;;;;;;;;;;;20.00;99.20;;;;;;4927518;28;21195;-75